createdAt,value
2023-04-25T00:00:08.597Z,941.44
2023-04-25T00:00:19.588Z,941.41
2023-04-25T00:00:30.585Z,941.38
2023-04-25T00:00:41.587Z,941.39
2023-04-25T00:00:52.585Z,941.41
2023-04-25T00:01:03.570Z,941.42
2023-04-25T00:01:14.564Z,941.42
2023-04-25T00:01:25.566Z,941.42
2023-04-25T00:01:36.554Z,941.43
2023-04-25T00:01:47.552Z,941.40
2023-04-25T00:01:58.551Z,941.43
2023-04-25T00:02:09.821Z,941.43
2023-04-25T00:02:21.649Z,941.42
2023-04-25T00:02:32.659Z,941.41
2023-04-25T00:02:43.899Z,941.41
2023-04-25T00:02:54.736Z,941.39
2023-04-25T00:03:06.817Z,941.37
2023-04-25T00:03:17.712Z,941.34
2023-04-25T00:03:28.762Z,941.36
2023-04-25T00:03:39.781Z,941.39
2023-04-25T00:03:52.125Z,941.39
2023-04-25T00:04:02.655Z,941.38
2023-04-25T00:04:14.781Z,941.38
2023-04-25T00:04:25.792Z,941.39
2023-04-25T00:04:36.922Z,941.41
2023-04-25T00:04:47.788Z,941.39
2023-04-25T00:04:58.810Z,941.36
2023-04-25T00:05:10.687Z,941.37
2023-04-25T00:05:21.646Z,941.38
2023-04-25T00:05:32.648Z,941.38
2023-04-25T00:05:44.691Z,941.39
2023-04-25T00:05:55.773Z,941.38
2023-04-25T00:06:06.557Z,941.39
2023-04-25T00:06:17.547Z,941.39
2023-04-25T00:06:28.543Z,941.39
2023-04-25T00:06:39.641Z,941.38
2023-04-25T00:06:51.622Z,941.37
2023-04-25T00:07:02.624Z,941.36
2023-04-25T00:07:14.587Z,941.38
2023-04-25T00:07:25.580Z,941.36
2023-04-25T00:07:36.574Z,941.37
2023-04-25T00:07:47.578Z,941.35
2023-04-25T00:07:58.571Z,941.37
2023-04-25T00:08:09.547Z,941.37
2023-04-25T00:08:20.547Z,941.38
2023-04-25T00:08:31.570Z,941.39
2023-04-25T00:08:42.570Z,941.38
2023-04-25T00:08:53.564Z,941.37
2023-04-25T00:09:04.592Z,941.36
2023-04-25T00:09:15.596Z,941.36
2023-04-25T00:09:26.576Z,941.36
2023-04-25T00:09:37.576Z,941.39
2023-04-25T00:09:48.567Z,941.35
2023-04-25T00:09:59.567Z,941.36
2023-04-25T00:10:10.567Z,941.37
2023-04-25T00:10:21.566Z,941.38
2023-04-25T00:10:32.560Z,941.37
2023-04-25T00:10:43.560Z,941.37
2023-04-25T00:10:54.560Z,941.39
2023-04-25T00:11:05.556Z,941.35
2023-04-25T00:11:16.546Z,941.35
2023-04-25T00:11:27.564Z,941.34
2023-04-25T00:11:38.549Z,941.34
2023-04-25T00:11:49.642Z,941.36
2023-04-25T00:12:01.614Z,941.36
2023-04-25T00:12:12.587Z,941.35
2023-04-25T00:12:23.587Z,941.35
2023-04-25T00:12:34.577Z,941.34
2023-04-25T00:12:45.569Z,941.34
2023-04-25T00:12:56.560Z,941.36
2023-04-25T00:13:07.554Z,941.39
2023-04-25T00:13:18.647Z,941.36
2023-04-25T00:13:30.596Z,941.35
2023-04-25T00:13:41.572Z,941.36
2023-04-25T00:13:52.564Z,941.35
2023-04-25T00:14:03.552Z,941.35
2023-04-25T00:14:14.545Z,941.33
2023-04-25T00:14:25.543Z,941.33
2023-04-25T00:14:36.561Z,941.35
2023-04-25T00:14:47.630Z,941.37
2023-04-25T00:14:59.594Z,941.35
2023-04-25T00:15:10.598Z,941.36
2023-04-25T00:15:21.627Z,941.38
2023-04-25T00:15:33.607Z,941.40
2023-04-25T00:15:45.613Z,941.38
2023-04-25T00:15:57.647Z,941.39
2023-04-25T00:16:08.557Z,941.40
2023-04-25T00:16:19.616Z,941.36
2023-04-25T00:16:30.573Z,941.34
2023-04-25T00:16:41.579Z,941.35
2023-04-25T00:16:52.569Z,941.39
2023-04-25T00:17:03.566Z,941.42
2023-04-25T00:17:14.559Z,941.40
2023-04-25T00:17:25.564Z,941.38
2023-04-25T00:17:36.562Z,941.36
2023-04-25T00:17:47.653Z,941.41
2023-04-25T00:17:59.678Z,941.42
2023-04-25T00:18:11.555Z,941.43
2023-04-25T00:18:22.648Z,941.44
2023-04-25T00:18:34.602Z,941.43
2023-04-25T00:18:45.599Z,941.43
2023-04-25T00:18:56.601Z,941.37
2023-04-25T00:19:07.594Z,941.36
2023-04-25T00:19:18.575Z,941.40
2023-04-25T00:19:29.579Z,941.41
2023-04-25T00:19:40.593Z,941.41
2023-04-25T00:19:51.587Z,941.41
2023-04-25T00:20:02.587Z,941.43
2023-04-25T00:20:13.584Z,941.44
2023-04-25T00:20:24.579Z,941.45
2023-04-25T00:20:35.574Z,941.46
2023-04-25T00:20:46.585Z,941.46
2023-04-25T00:20:57.573Z,941.44
2023-04-25T00:21:08.568Z,941.44
2023-04-25T00:21:19.551Z,941.44
2023-04-25T00:21:30.638Z,941.44
2023-04-25T00:21:42.584Z,941.45
2023-04-25T00:21:53.579Z,941.44
2023-04-25T00:22:04.589Z,941.44
2023-04-25T00:22:15.595Z,941.44
2023-04-25T00:22:26.589Z,941.43
2023-04-25T00:22:37.575Z,941.45
2023-04-25T00:22:48.575Z,941.47
2023-04-25T00:22:59.581Z,941.46
2023-04-25T00:23:10.559Z,941.44
2023-04-25T00:23:21.558Z,941.44
2023-04-25T00:23:32.547Z,941.44
2023-04-25T00:23:43.642Z,941.46
2023-04-25T00:23:55.623Z,941.48
2023-04-25T00:24:07.589Z,941.42
2023-04-25T00:24:18.596Z,941.44
2023-04-25T00:24:29.594Z,941.43
2023-04-25T00:24:40.587Z,941.41
2023-04-25T00:24:51.586Z,941.46
2023-04-25T00:25:03.597Z,941.40
2023-04-25T00:25:15.588Z,941.43
2023-04-25T00:25:26.581Z,941.44
2023-04-25T00:25:38.575Z,941.45
2023-04-25T00:25:49.567Z,941.44
2023-04-25T00:26:00.565Z,941.46
2023-04-25T00:26:11.562Z,941.45
2023-04-25T00:26:22.618Z,941.42
2023-04-25T00:26:34.595Z,941.42
2023-04-25T00:26:45.587Z,941.43
2023-04-25T00:26:56.597Z,941.42
2023-04-25T00:27:07.584Z,941.44
2023-04-25T00:27:18.580Z,941.44
2023-04-25T00:27:29.576Z,941.44
2023-04-25T00:27:40.560Z,941.46
2023-04-25T00:27:51.574Z,941.42
2023-04-25T00:28:02.568Z,941.42
2023-04-25T00:28:13.571Z,941.34
2023-04-25T00:28:24.573Z,941.38
2023-04-25T00:28:35.551Z,941.40
2023-04-25T00:28:46.601Z,941.44
2023-04-25T00:28:57.583Z,941.40
2023-04-25T00:29:08.599Z,941.41
2023-04-25T00:29:19.597Z,941.44
2023-04-25T00:29:30.605Z,941.45
2023-04-25T00:29:41.600Z,941.43
2023-04-25T00:29:52.592Z,941.39
2023-04-25T00:30:03.621Z,941.39
2023-04-25T00:30:15.602Z,941.43
2023-04-25T00:30:26.577Z,941.43
2023-04-25T00:30:37.593Z,941.45
2023-04-25T00:30:48.582Z,941.39
2023-04-25T00:30:59.608Z,941.40
2023-04-25T00:31:11.641Z,941.41
2023-04-25T00:31:23.639Z,941.41
2023-04-25T00:31:35.628Z,941.42
2023-04-25T00:31:47.619Z,941.43
2023-04-25T00:31:58.628Z,941.44
2023-04-25T00:32:09.580Z,941.43
2023-04-25T00:32:20.573Z,941.42
2023-04-25T00:32:31.608Z,941.40
2023-04-25T00:32:42.609Z,941.19
2023-04-25T00:32:54.659Z,941.38
2023-04-25T00:33:05.597Z,941.36
2023-04-25T00:33:17.583Z,941.40
2023-04-25T00:33:28.571Z,941.37
2023-04-25T00:33:39.563Z,941.37
2023-04-25T00:33:50.844Z,941.37
2023-04-25T00:34:01.549Z,941.37
2023-04-25T00:34:12.547Z,941.42
2023-04-25T00:34:23.622Z,941.37
2023-04-25T00:34:35.612Z,941.33
2023-04-25T00:34:46.602Z,941.36
2023-04-25T00:34:57.600Z,941.37
2023-04-25T00:35:08.596Z,941.38
2023-04-25T00:35:19.592Z,941.38
2023-04-25T00:35:30.579Z,941.38
2023-04-25T00:35:41.594Z,941.38
2023-04-25T00:35:53.573Z,941.40
2023-04-25T00:36:04.552Z,941.39
2023-04-25T00:36:15.544Z,941.39
2023-04-25T00:36:26.557Z,941.38
2023-04-25T00:36:37.588Z,941.37
2023-04-25T00:36:48.568Z,941.37
2023-04-25T00:36:59.563Z,941.36
2023-04-25T00:37:10.571Z,941.38
2023-04-25T00:37:21.559Z,941.35
2023-04-25T00:37:32.551Z,941.35
2023-04-25T00:37:43.553Z,941.32
2023-04-25T00:37:54.548Z,941.33
2023-04-25T00:38:05.567Z,941.34
2023-04-25T00:38:16.560Z,941.33
2023-04-25T00:38:27.561Z,941.33
2023-04-25T00:38:38.571Z,941.33
2023-04-25T00:38:49.585Z,941.35
2023-04-25T00:39:00.576Z,941.32
2023-04-25T00:39:11.601Z,941.31
2023-04-25T00:39:23.604Z,941.32
2023-04-25T00:39:34.593Z,941.30
2023-04-25T00:39:45.594Z,941.29
2023-04-25T00:39:56.596Z,941.29
2023-04-25T00:40:08.575Z,941.29
2023-04-25T00:40:19.593Z,941.27
2023-04-25T00:40:31.588Z,941.27
2023-04-25T00:40:42.567Z,941.29
2023-04-25T00:40:53.568Z,941.30
2023-04-25T00:41:04.556Z,941.33
2023-04-25T00:41:15.639Z,941.32
2023-04-25T00:41:27.628Z,941.34
2023-04-25T00:41:39.610Z,941.34
2023-04-25T00:41:50.578Z,941.34
2023-04-25T00:42:01.626Z,941.31
2023-04-25T00:42:13.582Z,941.30
2023-04-25T00:42:24.578Z,941.27
2023-04-25T00:42:35.590Z,941.31
2023-04-25T00:42:46.583Z,941.30
2023-04-25T00:42:57.565Z,941.30
2023-04-25T00:43:08.577Z,941.33
2023-04-25T00:43:19.567Z,941.33
2023-04-25T00:43:30.564Z,941.34
2023-04-25T00:43:41.593Z,941.32
2023-04-25T00:43:52.888Z,941.34
2023-04-25T00:44:04.573Z,941.33
2023-04-25T00:44:15.574Z,941.32
2023-04-25T00:44:26.569Z,941.33
2023-04-25T00:44:37.561Z,941.31
2023-04-25T00:44:48.608Z,941.30
2023-04-25T00:44:59.586Z,941.27
2023-04-25T00:45:10.613Z,941.30
2023-04-25T00:45:21.624Z,941.33
2023-04-25T00:45:33.604Z,941.32
2023-04-25T00:45:44.600Z,941.35
2023-04-25T00:45:55.599Z,941.36
2023-04-25T00:46:06.607Z,941.37
2023-04-25T00:46:18.608Z,941.36
2023-04-25T00:46:30.604Z,941.36
2023-04-25T00:46:41.660Z,941.36
2023-04-25T00:46:52.635Z,941.38
2023-04-25T00:47:04.780Z,941.29
2023-04-25T00:47:16.626Z,941.33
2023-04-25T00:47:28.606Z,941.33
2023-04-25T00:47:40.640Z,941.31
2023-04-25T00:47:52.638Z,941.30
2023-04-25T00:48:03.663Z,941.31
2023-04-25T00:48:14.580Z,941.33
2023-04-25T00:48:25.581Z,941.33
2023-04-25T00:48:36.574Z,941.32
2023-04-25T00:48:47.554Z,941.30
2023-04-25T00:48:58.553Z,941.29
2023-04-25T00:49:09.634Z,941.32
2023-04-25T00:49:21.609Z,941.32
2023-04-25T00:49:33.608Z,941.32
2023-04-25T00:49:45.576Z,941.31
2023-04-25T00:49:56.575Z,941.33
2023-04-25T00:50:07.579Z,941.32
2023-04-25T00:50:18.577Z,941.32
2023-04-25T00:50:29.578Z,941.33
2023-04-25T00:50:40.570Z,941.33
2023-04-25T00:50:51.579Z,941.34
2023-04-25T00:51:02.572Z,941.33
2023-04-25T00:51:13.580Z,941.35
2023-04-25T00:51:24.561Z,941.36
2023-04-25T00:51:35.562Z,941.35
2023-04-25T00:51:46.565Z,941.35
2023-04-25T00:51:57.592Z,941.35
2023-04-25T00:52:08.605Z,941.37
2023-04-25T00:52:19.595Z,941.34
2023-04-25T00:52:30.594Z,941.35
2023-04-25T00:52:42.585Z,941.34
2023-04-25T00:52:53.584Z,941.34
2023-04-25T00:53:04.603Z,941.34
2023-04-25T00:53:15.608Z,941.33
2023-04-25T00:53:26.592Z,941.32
2023-04-25T00:53:38.587Z,941.32
2023-04-25T00:53:49.685Z,941.33
2023-04-25T00:54:01.597Z,941.34
2023-04-25T00:54:12.595Z,941.34
2023-04-25T00:54:23.619Z,941.35
2023-04-25T00:54:35.581Z,941.35
2023-04-25T00:54:46.582Z,941.32
2023-04-25T00:54:57.599Z,941.30
2023-04-25T00:55:09.600Z,941.31
2023-04-25T00:55:20.580Z,941.29
2023-04-25T00:55:31.594Z,941.30
2023-04-25T00:55:42.589Z,941.29
2023-04-25T00:55:53.604Z,941.30
2023-04-25T00:56:05.601Z,941.30
2023-04-25T00:56:16.594Z,941.27
2023-04-25T00:56:27.596Z,941.29
2023-04-25T00:56:38.600Z,941.26
2023-04-25T00:56:49.606Z,941.27
2023-04-25T00:57:00.587Z,941.29
2023-04-25T00:57:11.593Z,941.27
2023-04-25T00:57:22.585Z,941.27
2023-04-25T00:57:33.582Z,941.29
2023-04-25T00:57:44.583Z,941.31
2023-04-25T00:57:55.554Z,941.29
2023-04-25T00:58:06.575Z,941.30
2023-04-25T00:58:17.554Z,941.25
2023-04-25T00:58:28.544Z,941.22
2023-04-25T00:58:39.566Z,941.25
2023-04-25T00:58:50.565Z,941.24
2023-04-25T00:59:01.551Z,941.26
2023-04-25T00:59:12.554Z,941.25
2023-04-25T00:59:23.555Z,941.25
2023-04-25T00:59:34.561Z,941.25
2023-04-25T00:59:45.562Z,941.22
2023-04-25T00:59:56.637Z,941.21
2023-04-25T01:00:08.628Z,941.23
2023-04-25T01:00:20.633Z,941.24
2023-04-25T01:00:32.611Z,941.24
2023-04-25T01:00:44.604Z,941.26
2023-04-25T01:00:56.613Z,941.28
2023-04-25T01:01:07.638Z,941.28
2023-04-25T01:01:19.638Z,941.30
2023-04-25T01:01:31.613Z,941.29
2023-04-25T01:01:42.609Z,941.26
2023-04-25T01:01:53.647Z,941.32
2023-04-25T01:02:05.625Z,941.32
2023-04-25T01:02:17.668Z,941.31
2023-04-25T01:02:28.692Z,941.33
2023-04-25T01:02:40.702Z,941.29
2023-04-25T01:02:52.795Z,941.30
2023-04-25T01:03:04.714Z,941.28
2023-04-25T01:03:15.694Z,941.31
2023-04-25T01:03:27.775Z,941.32
2023-04-25T01:03:39.771Z,941.33
2023-04-25T01:03:51.902Z,941.35
2023-04-25T01:04:03.699Z,941.34
2023-04-25T01:04:16.003Z,941.32
2023-04-25T01:04:27.693Z,941.34
2023-04-25T01:04:38.578Z,941.34
2023-04-25T01:04:49.576Z,941.33
2023-04-25T01:05:00.589Z,941.35
2023-04-25T01:05:11.599Z,941.36
2023-04-25T01:05:22.604Z,941.35
2023-04-25T01:05:33.598Z,941.35
2023-04-25T01:05:45.583Z,941.28
2023-04-25T01:05:56.609Z,941.33
2023-04-25T01:06:08.585Z,941.32
2023-04-25T01:06:19.595Z,941.33
2023-04-25T01:06:31.587Z,941.36
2023-04-25T01:06:42.616Z,941.37
2023-04-25T01:06:54.579Z,941.36
2023-04-25T01:07:05.585Z,941.36
2023-04-25T01:07:16.583Z,941.35
2023-04-25T01:07:27.576Z,941.37
2023-04-25T01:07:38.566Z,941.37
2023-04-25T01:07:49.579Z,941.38
2023-04-25T01:08:00.567Z,941.37
2023-04-25T01:08:11.551Z,941.37
2023-04-25T01:08:22.645Z,941.36
2023-04-25T01:08:34.606Z,941.38
2023-04-25T01:08:46.604Z,941.36
2023-04-25T01:08:57.603Z,941.36
2023-04-25T01:09:08.623Z,941.33
2023-04-25T01:09:20.623Z,941.32
2023-04-25T01:09:32.575Z,941.32
2023-04-25T01:09:43.565Z,941.31
2023-04-25T01:09:54.648Z,941.27
2023-04-25T01:10:06.620Z,941.30
2023-04-25T01:10:18.599Z,941.33
2023-04-25T01:10:29.586Z,941.25
2023-04-25T01:10:40.594Z,941.29
2023-04-25T01:10:51.599Z,941.26
2023-04-25T01:11:02.600Z,941.27
2023-04-25T01:11:13.584Z,941.29
2023-04-25T01:11:24.589Z,941.31
2023-04-25T01:11:35.609Z,941.29
2023-04-25T01:11:46.610Z,941.29
2023-04-25T01:11:57.830Z,941.25
2023-04-25T01:12:09.587Z,941.29
2023-04-25T01:12:20.587Z,941.32
2023-04-25T01:12:31.591Z,941.31
2023-04-25T01:12:42.602Z,941.30
2023-04-25T01:12:53.605Z,941.30
2023-04-25T01:13:04.604Z,941.29
2023-04-25T01:13:16.572Z,941.31
2023-04-25T01:13:27.564Z,941.30
2023-04-25T01:13:38.563Z,941.29
2023-04-25T01:13:50.837Z,941.30
2023-04-25T01:14:01.557Z,941.30
2023-04-25T01:14:12.575Z,941.29
2023-04-25T01:14:23.582Z,941.29
2023-04-25T01:14:34.585Z,941.29
2023-04-25T01:14:45.593Z,941.29
2023-04-25T01:14:56.592Z,941.30
2023-04-25T01:15:07.593Z,941.29
2023-04-25T01:15:19.580Z,941.29
2023-04-25T01:15:30.570Z,941.28
2023-04-25T01:15:41.577Z,941.28
2023-04-25T01:15:52.579Z,941.28
2023-04-25T01:16:03.580Z,941.27
2023-04-25T01:16:14.659Z,941.28
2023-04-25T01:16:25.618Z,941.28
2023-04-25T01:16:37.665Z,941.30
2023-04-25T01:16:48.582Z,941.30
2023-04-25T01:16:59.708Z,941.31
2023-04-25T01:17:11.610Z,941.30
2023-04-25T01:17:22.605Z,941.30
2023-04-25T01:17:33.615Z,941.28
2023-04-25T01:17:45.677Z,941.28
2023-04-25T01:17:56.721Z,941.28
2023-04-25T01:18:07.630Z,941.28
2023-04-25T01:18:18.563Z,941.29
2023-04-25T01:18:29.561Z,941.29
2023-04-25T01:18:40.658Z,941.29
2023-04-25T01:18:52.746Z,941.30
2023-04-25T01:19:04.605Z,941.31
2023-04-25T01:19:16.585Z,941.31
2023-04-25T01:19:27.583Z,941.28
2023-04-25T01:19:38.588Z,941.28
2023-04-25T01:19:49.582Z,941.28
2023-04-25T01:20:00.595Z,941.29
2023-04-25T01:20:11.581Z,941.26
2023-04-25T01:20:22.586Z,941.30
2023-04-25T01:20:33.586Z,941.32
2023-04-25T01:20:44.576Z,941.32
2023-04-25T01:20:55.578Z,941.35
2023-04-25T01:21:06.570Z,941.33
2023-04-25T01:21:17.578Z,941.33
2023-04-25T01:21:28.579Z,941.33
2023-04-25T01:21:39.595Z,941.32
2023-04-25T01:21:50.600Z,941.32
2023-04-25T01:22:01.588Z,941.33
2023-04-25T01:22:13.582Z,941.33
2023-04-25T01:22:24.592Z,941.35
2023-04-25T01:22:35.612Z,941.36
2023-04-25T01:22:47.577Z,941.37
2023-04-25T01:22:58.581Z,941.35
2023-04-25T01:23:09.572Z,941.34
2023-04-25T01:23:21.619Z,941.32
2023-04-25T01:23:33.596Z,941.35
2023-04-25T01:23:44.625Z,941.33
2023-04-25T01:23:56.612Z,941.35
2023-04-25T01:24:07.593Z,941.35
2023-04-25T01:24:19.566Z,941.37
2023-04-25T01:24:30.574Z,941.38
2023-04-25T01:24:41.598Z,941.38
2023-04-25T01:24:52.588Z,941.38
2023-04-25T01:25:03.582Z,941.38
2023-04-25T01:25:14.576Z,941.38
2023-04-25T01:25:25.586Z,941.38
2023-04-25T01:25:36.575Z,941.37
2023-04-25T01:25:47.568Z,941.37
2023-04-25T01:25:58.590Z,941.37
2023-04-25T01:26:09.581Z,941.36
2023-04-25T01:26:20.585Z,941.36
2023-04-25T01:26:31.586Z,941.35
2023-04-25T01:26:42.582Z,941.35
2023-04-25T01:26:54.587Z,941.36
2023-04-25T01:27:05.581Z,941.36
2023-04-25T01:27:16.578Z,941.35
2023-04-25T01:27:27.563Z,941.35
2023-04-25T01:27:38.556Z,941.31
2023-04-25T01:27:49.560Z,941.33
2023-04-25T01:28:00.559Z,941.33
2023-04-25T01:28:11.547Z,941.32
2023-04-25T01:28:22.643Z,941.31
2023-04-25T01:28:34.589Z,941.33
2023-04-25T01:28:45.582Z,941.32
2023-04-25T01:28:56.578Z,941.32
2023-04-25T01:29:07.577Z,941.33
2023-04-25T01:29:18.574Z,941.33
2023-04-25T01:29:29.577Z,941.33
2023-04-25T01:29:40.578Z,941.33
2023-04-25T01:29:51.578Z,941.33
2023-04-25T01:30:02.568Z,941.34
2023-04-25T01:30:13.570Z,941.33
2023-04-25T01:30:24.580Z,941.32
2023-04-25T01:30:35.559Z,941.33
2023-04-25T01:30:46.642Z,941.32
2023-04-25T01:30:58.602Z,941.33
2023-04-25T01:31:09.578Z,941.33
2023-04-25T01:31:20.634Z,941.33
2023-04-25T01:31:31.629Z,941.34
2023-04-25T01:31:43.672Z,941.33
2023-04-25T01:31:54.621Z,941.33
2023-04-25T01:32:06.627Z,941.31
2023-04-25T01:32:17.638Z,941.32
2023-04-25T01:32:28.582Z,941.29
2023-04-25T01:32:39.725Z,941.29
2023-04-25T01:32:50.590Z,941.28
2023-04-25T01:33:02.656Z,941.30
2023-04-25T01:33:13.579Z,941.33
2023-04-25T01:33:24.594Z,941.31
2023-04-25T01:33:35.588Z,941.31
2023-04-25T01:33:46.609Z,941.32
2023-04-25T01:33:57.605Z,941.33
2023-04-25T01:34:08.593Z,941.34
2023-04-25T01:34:19.578Z,941.33
2023-04-25T01:34:30.569Z,941.32
2023-04-25T01:34:41.589Z,941.30
2023-04-25T01:34:52.587Z,941.29
2023-04-25T01:35:03.580Z,941.31
2023-04-25T01:35:14.564Z,941.32
2023-04-25T01:35:25.570Z,941.35
2023-04-25T01:35:36.588Z,941.28
2023-04-25T01:35:47.593Z,941.28
2023-04-25T01:35:58.579Z,941.21
2023-04-25T01:36:09.571Z,941.23
2023-04-25T01:36:20.573Z,941.26
2023-04-25T01:36:31.578Z,941.29
2023-04-25T01:36:42.600Z,941.30
2023-04-25T01:36:53.588Z,941.29
2023-04-25T01:37:04.559Z,941.28
2023-04-25T01:37:15.569Z,941.26
2023-04-25T01:37:26.595Z,941.32
2023-04-25T01:37:37.586Z,941.29
2023-04-25T01:37:48.573Z,941.31
2023-04-25T01:37:59.570Z,941.32
2023-04-25T01:38:10.567Z,941.33
2023-04-25T01:38:21.564Z,941.30
2023-04-25T01:38:32.567Z,941.31
2023-04-25T01:38:43.570Z,941.31
2023-04-25T01:38:54.557Z,941.31
2023-04-25T01:39:05.643Z,941.33
2023-04-25T01:39:17.595Z,941.32
2023-04-25T01:39:28.595Z,941.33
2023-04-25T01:39:39.580Z,941.31
2023-04-25T01:39:51.574Z,941.32
2023-04-25T01:40:02.581Z,941.31
2023-04-25T01:40:13.588Z,941.31
2023-04-25T01:40:24.602Z,941.31
2023-04-25T01:40:35.584Z,941.33
2023-04-25T01:40:46.606Z,941.31
2023-04-25T01:40:57.589Z,941.31
2023-04-25T01:41:08.578Z,941.33
2023-04-25T01:41:19.573Z,941.33
2023-04-25T01:41:30.576Z,941.34
2023-04-25T01:41:41.573Z,941.28
2023-04-25T01:41:52.573Z,941.29
2023-04-25T01:42:03.575Z,941.29
2023-04-25T01:42:14.574Z,941.27
2023-04-25T01:42:25.560Z,941.29
2023-04-25T01:42:36.557Z,941.26
2023-04-25T01:42:47.556Z,941.31
2023-04-25T01:42:58.554Z,941.27
2023-04-25T01:43:09.558Z,941.30
2023-04-25T01:43:20.573Z,941.30
2023-04-25T01:43:31.559Z,941.29
2023-04-25T01:43:42.559Z,941.29
2023-04-25T01:43:53.632Z,941.30
2023-04-25T01:44:04.596Z,941.29
2023-04-25T01:44:15.572Z,941.29
2023-04-25T01:44:27.579Z,941.31
2023-04-25T01:44:38.564Z,941.31
2023-04-25T01:44:49.559Z,941.32
2023-04-25T01:45:00.575Z,941.30
2023-04-25T01:45:11.583Z,941.31
2023-04-25T01:45:22.585Z,941.31
2023-04-25T01:45:33.568Z,941.31
2023-04-25T01:45:44.590Z,941.32
2023-04-25T01:45:56.623Z,941.31
2023-04-25T01:46:07.599Z,941.31
2023-04-25T01:46:18.651Z,941.31
2023-04-25T01:46:30.655Z,941.30
2023-04-25T01:46:42.595Z,941.30
2023-04-25T01:46:53.581Z,941.29
2023-04-25T01:47:04.590Z,941.29
2023-04-25T01:47:15.576Z,941.30
2023-04-25T01:47:26.622Z,941.28
2023-04-25T01:47:38.615Z,941.29
2023-04-25T01:47:50.617Z,941.29
2023-04-25T01:48:01.567Z,941.30
2023-04-25T01:48:12.652Z,941.30
2023-04-25T01:48:24.643Z,941.29
2023-04-25T01:48:36.587Z,941.30
2023-04-25T01:48:47.575Z,941.33
2023-04-25T01:48:58.588Z,941.27
2023-04-25T01:49:09.594Z,941.25
2023-04-25T01:49:20.589Z,941.28
2023-04-25T01:49:31.577Z,941.29
2023-04-25T01:49:42.566Z,941.29
2023-04-25T01:49:53.586Z,941.26
2023-04-25T01:50:04.578Z,941.25
2023-04-25T01:50:15.573Z,941.25
2023-04-25T01:50:26.557Z,941.26
2023-04-25T01:50:37.646Z,941.23
2023-04-25T01:50:49.611Z,941.28
2023-04-25T01:51:01.572Z,941.28
2023-04-25T01:51:12.646Z,941.30
2023-04-25T01:51:23.559Z,941.30
2023-04-25T01:51:34.552Z,941.31
2023-04-25T01:51:45.557Z,941.31
2023-04-25T01:51:56.544Z,941.32
2023-04-25T01:52:07.633Z,941.33
2023-04-25T01:52:19.594Z,941.35
2023-04-25T01:52:30.586Z,941.29
2023-04-25T01:52:42.574Z,941.16
2023-04-25T01:52:53.557Z,941.21
2023-04-25T01:53:04.580Z,941.27
2023-04-25T01:53:15.581Z,941.27
2023-04-25T01:53:26.604Z,941.31
2023-04-25T01:53:37.588Z,941.31
2023-04-25T01:53:48.717Z,941.29
2023-04-25T01:54:00.996Z,941.27
2023-04-25T01:54:11.612Z,941.30
2023-04-25T01:54:23.569Z,941.31
2023-04-25T01:54:34.570Z,941.34
2023-04-25T01:54:45.584Z,941.30
2023-04-25T01:54:57.570Z,941.26
2023-04-25T01:55:08.556Z,941.32
2023-04-25T01:55:19.565Z,941.28
2023-04-25T01:55:30.566Z,941.32
2023-04-25T01:55:41.566Z,941.32
2023-04-25T01:55:52.570Z,941.30
2023-04-25T01:56:03.572Z,941.26
2023-04-25T01:56:14.582Z,941.29
2023-04-25T01:56:25.568Z,941.30
2023-04-25T01:56:36.552Z,941.30
2023-04-25T01:56:47.546Z,941.32
2023-04-25T01:56:58.542Z,941.29
2023-04-25T01:57:09.541Z,941.31
2023-04-25T01:57:20.633Z,941.30
2023-04-25T01:57:32.597Z,941.29
2023-04-25T01:57:44.599Z,941.30
2023-04-25T01:57:55.592Z,941.33
2023-04-25T01:58:06.574Z,941.33
2023-04-25T01:58:17.581Z,941.33
2023-04-25T01:58:28.575Z,941.32
2023-04-25T01:58:39.554Z,941.32
2023-04-25T01:58:50.579Z,941.32
2023-04-25T01:59:01.569Z,941.34
2023-04-25T01:59:12.587Z,941.33
2023-04-25T01:59:23.583Z,941.27
2023-04-25T01:59:34.581Z,941.28
2023-04-25T01:59:45.589Z,941.32
2023-04-25T01:59:56.574Z,941.33
2023-04-25T02:00:07.556Z,941.31
2023-04-25T02:00:18.570Z,941.32
2023-04-25T02:00:30.595Z,941.34
2023-04-25T02:00:41.578Z,941.33
2023-04-25T02:00:52.575Z,941.33
2023-04-25T02:01:03.741Z,941.33
2023-04-25T02:01:15.740Z,941.32
2023-04-25T02:01:26.621Z,941.32
2023-04-25T02:01:37.717Z,941.32
2023-04-25T02:01:48.717Z,941.29
2023-04-25T02:02:00.616Z,941.32
2023-04-25T02:02:11.633Z,941.34
2023-04-25T02:02:23.687Z,941.34
2023-04-25T02:02:34.688Z,941.32
2023-04-25T02:02:45.663Z,941.31
2023-04-25T02:02:56.716Z,941.30
2023-04-25T02:03:08.755Z,941.29
2023-04-25T02:03:20.673Z,941.30
2023-04-25T02:03:31.733Z,941.31
2023-04-25T02:03:42.701Z,941.32
2023-04-25T02:03:55.337Z,941.31
2023-04-25T02:04:05.710Z,941.31
2023-04-25T02:04:17.679Z,941.28
2023-04-25T02:04:28.724Z,941.30
2023-04-25T02:04:39.761Z,941.30
2023-04-25T02:04:50.691Z,941.31
2023-04-25T02:05:02.569Z,941.30
2023-04-25T02:05:13.586Z,941.31
2023-04-25T02:05:24.587Z,941.31
2023-04-25T02:05:35.575Z,941.31
2023-04-25T02:05:46.554Z,941.30
2023-04-25T02:05:57.557Z,941.30
2023-04-25T02:06:08.645Z,941.29
2023-04-25T02:06:20.598Z,941.31
2023-04-25T02:06:31.590Z,941.29
2023-04-25T02:06:42.578Z,941.29
2023-04-25T02:06:53.596Z,941.28
2023-04-25T02:07:04.586Z,941.29
2023-04-25T02:07:15.575Z,941.31
2023-04-25T02:07:26.575Z,941.33
2023-04-25T02:07:37.562Z,941.28
2023-04-25T02:07:48.567Z,941.30
2023-04-25T02:07:59.552Z,941.30
2023-04-25T02:08:10.573Z,941.31
2023-04-25T02:08:21.569Z,941.30
2023-04-25T02:08:32.586Z,941.32
2023-04-25T02:08:43.586Z,941.32
2023-04-25T02:08:54.587Z,941.32
2023-04-25T02:09:05.607Z,941.31
2023-04-25T02:09:16.592Z,941.32
2023-04-25T02:09:27.595Z,941.32
2023-04-25T02:09:38.583Z,941.34
2023-04-25T02:09:49.587Z,941.35
2023-04-25T02:10:00.618Z,941.35
2023-04-25T02:10:12.589Z,941.36
2023-04-25T02:10:23.582Z,941.36
2023-04-25T02:10:34.602Z,941.37
2023-04-25T02:10:45.584Z,941.35
2023-04-25T02:10:56.620Z,941.35
2023-04-25T02:11:07.601Z,941.37
2023-04-25T02:11:19.575Z,941.34
2023-04-25T02:11:30.580Z,941.31
2023-04-25T02:11:41.581Z,941.33
2023-04-25T02:11:52.574Z,941.35
2023-04-25T02:12:03.570Z,941.33
2023-04-25T02:12:14.583Z,941.35
2023-04-25T02:12:25.576Z,941.35
2023-04-25T02:12:36.592Z,941.34
2023-04-25T02:12:47.588Z,941.34
2023-04-25T02:12:59.577Z,941.35
2023-04-25T02:13:10.563Z,941.33
2023-04-25T02:13:21.557Z,941.31
2023-04-25T02:13:32.561Z,941.32
2023-04-25T02:13:43.561Z,941.33
2023-04-25T02:13:54.571Z,941.35
2023-04-25T02:14:05.561Z,941.35
2023-04-25T02:14:16.572Z,941.36
2023-04-25T02:14:27.568Z,941.36
2023-04-25T02:14:38.565Z,941.36
2023-04-25T02:14:49.559Z,941.36
2023-04-25T02:15:00.559Z,941.34
2023-04-25T02:15:11.554Z,941.32
2023-04-25T02:15:22.556Z,941.35
2023-04-25T02:15:33.651Z,941.35
2023-04-25T02:15:44.560Z,941.38
2023-04-25T02:15:55.624Z,941.37
2023-04-25T02:16:06.611Z,941.36
2023-04-25T02:16:18.656Z,941.36
2023-04-25T02:16:29.654Z,941.35
2023-04-25T02:16:40.621Z,941.35
2023-04-25T02:16:51.628Z,941.38
2023-04-25T02:17:02.749Z,941.29
2023-04-25T02:17:14.653Z,941.34
2023-04-25T02:17:25.593Z,941.35
2023-04-25T02:17:36.625Z,941.39
2023-04-25T02:17:47.633Z,941.38
2023-04-25T02:17:59.608Z,941.37
2023-04-25T02:18:10.700Z,941.37
2023-04-25T02:18:22.638Z,941.39
2023-04-25T02:18:34.603Z,941.39
2023-04-25T02:18:45.588Z,941.40
2023-04-25T02:18:56.599Z,941.38
2023-04-25T02:19:07.617Z,941.37
2023-04-25T02:19:19.607Z,941.37
2023-04-25T02:19:30.596Z,941.37
2023-04-25T02:19:41.594Z,941.34